Airfield :
LOGIN :

Register | Disclaimer

   EN    FR    IT 

 










Legend :    VFR   Marginal VFR   IFR   Intensive IFR   Very Intensive IFR
Visi :
Ceiling :
>= 8 km
>= 3000ft
5 to 8 km
1000 to 3000 ft
1500m to 5 km
500 to 1000 ft
800 to 1500m
200 to 500 ft
< 800m
< 200 ft
Symbols :   Thunderstorms  Fog  Heavy snow  Heavy precipitations  Wind > 20 kt
SIGMETs :     Misc.  Thunderstorms  Icing  Turbulence  Mountain Waves  Volcanic Ashes







- Airport Elevation : 405 ft
- IATA code : SUJ


LRSM - Satu Mare

CURRENT METAR :
  • 201830Z AUTO 06005KT 4800 -SHSN FEW007/// BKN030/// BKN070/// 00/00 Q1011

EXPIRED METARs :
  • 201800Z AUTO 09004KT 5000 BR SCT048/// BKN070/// 00/00 Q1011
  • 201730Z AUTO 13005KT 4700 BR FEW037/// SCT045/// BKN055/// 00/00 Q1011
  • 201700Z AUTO 09003KT 030V110 4700 BR BKN040/// 00/00 Q1011
  • 201630Z AUTO 03003KT 4400 BKN042/// OVC050/// 00/00 Q1011 RESN
  • 201600Z AUTO 09004KT 4700 SCT050/// BKN080/// 00/00 Q1011 RESN

Expired Forecast.
No reported NOTAMs for that airfield.



MET'MAP, your aeronautical weather chart ! - Copyright ORBIFLY December 2007 - Disclaimer

ORBIFLY MET'MAP TEAM :

Programming & Development : Alexandra Zaïnal
Concept & Development : Baudouin d'Aumeries
Co-Development & Prog : Marc-Olivier Méhu
Technical & hardware support : Manuel Goepfert

Contact : metmap@orbifly.com




SOURCES & CREDITS :

   NOAA